Time,TemperatureF,DewpointF,PressureIn,WindDirection,WindDirectionDegrees,WindSpeedMPH,WindSpeedGustMPH,Humidity,HourlyPrecipIn,Conditions,Clouds,dailyrainin,SoftwareType,DateUTC
2013-06-06 00:02:00,82.2,63.3,29.73,SW,225,1.1,-999.0,53,-99.99,,,0.00,Acu-Link.com,2013-06-06 05:02:00,
2013-06-06 00:18:00,81.7,63.4,29.72,SSE,157,1.7,-999.0,54,-99.99,,,0.00,Acu-Link.com,2013-06-06 05:18:00,
2013-06-06 00:33:00,81.3,63.0,29.72,SW,225,1.1,-999.0,54,-99.99,,,0.00,Acu-Link.com,2013-06-06 05:33:00,
2013-06-06 00:49:00,80.8,63.1,29.70,SSE,157,1.7,-999.0,55,-99.99,,,0.00,Acu-Link.com,2013-06-06 05:49:00,
2013-06-06 01:04:00,80.8,63.6,29.68,East,90,1.1,-999.0,56,-99.99,,,0.00,Acu-Link.com,2013-06-06 06:04:00,
2013-06-06 01:19:00,80.6,63.4,29.69,NE,45,2.2,-999.0,56,-99.99,,,0.00,Acu-Link.com,2013-06-06 06:19:00,
2013-06-06 01:35:00,80.8,63.6,29.71,ENE,67,0.0,-999.0,56,-99.99,,,0.00,Acu-Link.com,2013-06-06 06:35:00,
2013-06-06 01:51:00,80.4,63.7,29.67,ENE,67,4.7,-999.0,57,-99.99,,,0.00,Acu-Link.com,2013-06-06 06:51:00,
2013-06-06 02:07:00,80.2,63.6,29.70,West,270,1.7,-999.0,57,-99.99,,,0.00,Acu-Link.com,2013-06-06 07:07:00,
2013-06-06 02:22:00,80.2,63.6,29.76,WSW,247,3.7,-999.0,57,-99.99,,,0.00,Acu-Link.com,2013-06-06 07:22:00,
2013-06-06 02:37:00,79.3,60.7,29.78,WNW,292,8.9,-999.0,53,-99.99,,,0.00,Acu-Link.com,2013-06-06 07:37:00,
2013-06-06 02:53:00,73.4,62.2,29.79,WNW,292,10.4,-999.0,68,-99.99,,,0.00,Acu-Link.com,2013-06-06 07:53:00,
2013-06-06 03:08:00,72.5,62.5,29.79,NW,315,8.9,-999.0,71,-99.99,,,0.00,Acu-Link.com,2013-06-06 08:08:00,
2013-06-06 03:24:00,72.7,62.3,29.80,NNE,22,3.7,-999.0,70,-99.99,,,0.00,Acu-Link.com,2013-06-06 08:24:00,
2013-06-06 03:39:00,72.9,62.1,29.79,WNW,292,6.3,-999.0,69,-99.99,,,0.00,Acu-Link.com,2013-06-06 08:39:00,
2013-06-06 03:54:00,72.9,61.7,29.77,NNW,337,6.3,-999.0,68,-99.99,,,0.00,Acu-Link.com,2013-06-06 08:54:00,
2013-06-06 04:10:00,72.7,61.1,29.74,NNE,22,3.7,-999.0,67,-99.99,,,0.00,Acu-Link.com,2013-06-06 09:10:00,
2013-06-06 04:25:00,72.0,60.4,29.74,North,0,7.8,-999.0,67,-99.99,,,0.00,Acu-Link.com,2013-06-06 09:25:00,
2013-06-06 04:40:00,71.2,60.5,29.74,NNW,337,6.3,-999.0,69,-99.99,,,0.00,Acu-Link.com,2013-06-06 09:40:00,
2013-06-06 04:56:00,71.1,60.4,29.74,NW,315,4.2,-999.0,69,-99.99,,,0.00,Acu-Link.com,2013-06-06 09:56:00,
2013-06-06 05:11:00,70.7,60.0,29.72,NNW,337,4.2,-999.0,69,-99.99,,,0.00,Acu-Link.com,2013-06-06 10:11:00,
2013-06-06 05:42:00,69.6,60.2,29.70,ENE,67,2.7,-999.0,72,-99.99,,,0.00,Acu-Link.com,2013-06-06 10:42:00,
2013-06-06 05:58:00,69.1,60.1,29.72,East,90,0.0,-999.0,73,-99.99,,,0.00,Acu-Link.com,2013-06-06 10:58:00,
2013-06-06 06:13:00,68.5,60.3,29.74,SSE,157,0.0,-999.0,75,-99.99,,,0.00,Acu-Link.com,2013-06-06 11:13:00,
2013-06-06 06:28:00,68.5,60.6,29.74,WSW,247,0.0,-999.0,76,-99.99,,,0.00,Acu-Link.com,2013-06-06 11:28:00,
2013-06-06 06:43:00,68.2,60.3,29.73,SSE,157,3.2,-999.0,76,-99.99,,,0.00,Acu-Link.com,2013-06-06 11:43:00,
2013-06-06 06:58:00,68.4,60.5,29.73,SSE,157,3.2,-999.0,76,-99.99,,,0.00,Acu-Link.com,2013-06-06 11:58:00,
2013-06-06 07:14:00,68.5,61.0,29.71,SE,135,3.2,-999.0,77,-99.99,,,0.00,Acu-Link.com,2013-06-06 12:14:00,
2013-06-06 07:30:00,69.3,61.0,29.72,ESE,112,3.7,-999.0,75,-99.99,,,0.00,Acu-Link.com,2013-06-06 12:30:00,
2013-06-06 07:45:00,70.0,61.3,29.72,East,90,0.0,-999.0,74,-99.99,,,0.00,Acu-Link.com,2013-06-06 12:45:00,
2013-06-06 08:00:00,70.2,61.5,29.72,East,90,4.7,-999.0,74,-99.99,,,0.00,Acu-Link.com,2013-06-06 13:00:00,
2013-06-06 08:16:00,68.7,62.6,29.71,East,90,1.7,-999.0,81,-99.99,,,0.02,Acu-Link.com,2013-06-06 13:16:00,
2013-06-06 08:32:00,68.2,63.8,29.77,WNW,292,3.7,-999.0,86,-99.99,,,0.02,Acu-Link.com,2013-06-06 13:32:00,
2013-06-06 08:47:00,69.8,64.0,29.79,NW,315,3.2,-999.0,82,-99.99,,,0.02,Acu-Link.com,2013-06-06 13:47:00,
2013-06-06 09:02:00,73.0,64.2,29.79,SW,225,5.3,-999.0,74,-99.99,,,0.02,Acu-Link.com,2013-06-06 14:02:00,
2013-06-06 09:18:00,74.7,64.2,29.79,WNW,292,4.2,-999.0,70,-99.99,,,0.02,Acu-Link.com,2013-06-06 14:18:00,
2013-06-06 09:33:00,74.8,63.9,29.79,NW,315,7.8,-999.0,69,-99.99,,,0.02,Acu-Link.com,2013-06-06 14:33:00,
2013-06-06 09:49:00,77.0,64.8,29.79,WNW,292,1.7,-999.0,66,-99.99,,,0.02,Acu-Link.com,2013-06-06 14:49:00,
2013-06-06 10:04:00,77.4,63.3,29.79,West,270,1.7,-999.0,62,-99.99,,,0.02,Acu-Link.com,2013-06-06 15:04:00,
2013-06-06 10:19:00,76.1,64.3,29.79,South,180,5.8,-999.0,67,-99.99,,,0.02,Acu-Link.com,2013-06-06 15:19:00,
2013-06-06 10:34:00,76.6,63.0,29.78,SSW,202,2.7,-999.0,63,-99.99,,,0.02,Acu-Link.com,2013-06-06 15:34:00,
2013-06-06 10:50:00,77.0,63.0,29.77,SSW,202,3.7,-999.0,62,-99.99,,,0.02,Acu-Link.com,2013-06-06 15:50:00,
2013-06-06 11:05:00,79.0,63.9,29.76,NE,45,3.7,-999.0,60,-99.99,,,0.02,Acu-Link.com,2013-06-06 16:05:00,
2013-06-06 11:20:00,80.8,64.6,29.76,NE,45,4.7,-999.0,58,-99.99,,,0.02,Acu-Link.com,2013-06-06 16:20:00,
2013-06-06 11:36:00,82.4,64.1,29.78,North,0,9.9,-999.0,54,-99.99,,,0.02,Acu-Link.com,2013-06-06 16:36:00,
2013-06-06 12:07:00,81.1,63.9,29.77,NE,45,6.3,-999.0,56,-99.99,,,0.02,Acu-Link.com,2013-06-06 17:07:00,
2013-06-06 12:22:00,82.6,63.7,29.78,NNE,22,11.4,-999.0,53,-99.99,,,0.02,Acu-Link.com,2013-06-06 17:22:00,
2013-06-06 12:37:00,83.7,63.6,29.77,West,270,3.7,-999.0,51,-99.99,,,0.02,Acu-Link.com,2013-06-06 17:37:00,
2013-06-06 12:53:00,84.7,63.4,29.77,North,0,5.8,-999.0,49,-99.99,,,0.02,Acu-Link.com,2013-06-06 17:53:00,
2013-06-06 13:08:00,84.7,63.4,29.77,NNE,22,5.8,-999.0,49,-99.99,,,0.02,Acu-Link.com,2013-06-06 18:08:00,
2013-06-06 13:24:00,86.7,64.0,29.76,NW,315,4.7,-999.0,47,-99.99,,,0.02,Acu-Link.com,2013-06-06 18:24:00,
2013-06-06 13:39:00,87.4,64.0,29.76,NNE,22,5.8,-999.0,46,-99.99,,,0.02,Acu-Link.com,2013-06-06 18:39:00,
2013-06-06 13:54:00,86.4,63.8,29.76,NNE,22,8.3,-999.0,47,-99.99,,,0.02,Acu-Link.com,2013-06-06 18:54:00,
2013-06-06 14:10:00,85.8,63.8,29.76,NNE,22,8.3,-999.0,48,-99.99,,,0.02,Acu-Link.com,2013-06-06 19:10:00,
2013-06-06 14:25:00,86.4,64.9,29.77,NNE,22,6.8,-999.0,49,-99.99,,,0.02,Acu-Link.com,2013-06-06 19:25:00,
2013-06-06 14:40:00,86.7,64.6,29.77,NE,45,8.3,-999.0,48,-99.99,,,0.02,Acu-Link.com,2013-06-06 19:40:00,
2013-06-06 14:55:00,86.4,64.4,29.77,WNW,292,7.3,-999.0,48,-99.99,,,0.02,Acu-Link.com,2013-06-06 19:55:00,
2013-06-06 15:11:00,86.9,63.6,29.77,NNE,22,10.9,-999.0,46,-99.99,,,0.02,Acu-Link.com,2013-06-06 20:11:00,